createdAt,value
2019-05-23T00:01:21.246Z,4.17
2019-05-23T00:03:56.858Z,4.17
2019-05-23T00:06:28.147Z,3.30
2019-05-23T00:08:58.948Z,3.63
2019-05-23T00:11:40.614Z,4.40
2019-05-23T00:14:43.688Z,4.20
2019-05-23T00:17:18.858Z,4.20
2019-05-23T00:19:50.144Z,4.70
2019-05-23T00:22:20.475Z,4.63
2019-05-23T00:24:53.888Z,4.23
2019-05-23T00:27:24.784Z,4.23
2019-05-23T00:29:54.886Z,4.43
2019-05-23T00:32:30.848Z,4.83
2019-05-23T00:35:02.638Z,4.80
2019-05-23T00:37:34.105Z,5.03
2019-05-23T00:40:05.873Z,4.67
2019-05-23T00:42:35.906Z,5.03
2019-05-23T00:45:07.614Z,4.70
2019-05-23T00:47:37.628Z,4.90
2019-05-23T00:50:08.625Z,4.83
2019-05-23T00:52:38.992Z,5.20
2019-05-23T00:55:15.549Z,5.30
2019-05-23T00:57:47.027Z,4.73
2019-05-23T01:00:21.255Z,4.70
2019-05-23T01:02:51.446Z,4.60
2019-05-23T01:05:23.190Z,5.20
2019-05-23T01:07:54.129Z,4.53
2019-05-23T01:10:25.700Z,4.33
2019-05-23T01:12:56.396Z,4.77
2019-05-23T01:15:27.781Z,4.10
2019-05-23T01:17:57.619Z,4.03
2019-05-23T01:20:39.579Z,3.70
2019-05-23T01:23:09.560Z,4.63
2019-05-23T01:25:40.371Z,4.43
2019-05-23T01:28:10.698Z,4.73
2019-05-23T01:30:43.644Z,4.33
2019-05-23T01:33:14.065Z,4.50
2019-05-23T01:35:45.128Z,4.47
2019-05-23T01:38:16.579Z,4.63
2019-05-23T01:40:47.919Z,4.37
2019-05-23T01:43:21.297Z,4.77
2019-05-23T01:45:51.369Z,5.07
2019-05-23T01:48:22.016Z,4.43
2019-05-23T01:50:52.310Z,4.67
2019-05-23T01:53:22.361Z,4.77
2019-05-23T01:55:53.262Z,4.37
2019-05-23T01:58:26.451Z,5.07
2019-05-23T02:00:57.083Z,4.20
2019-05-23T02:03:26.897Z,4.43
2019-05-23T02:05:57.794Z,5.43
2019-05-23T02:08:30.818Z,4.20
2019-05-23T02:11:01.994Z,4.60
2019-05-23T02:13:32.666Z,4.40
2019-05-23T02:16:03.467Z,5.50
2019-05-23T02:18:33.420Z,5.00
2019-05-23T02:21:05.678Z,4.53
2019-05-23T02:23:35.729Z,4.80
2019-05-23T02:26:07.387Z,4.63
2019-05-23T02:28:37.511Z,4.67
2019-05-23T02:31:12.357Z,4.43
2019-05-23T02:33:43.594Z,4.93
2019-05-23T02:36:15.411Z,4.53
2019-05-23T02:39:18.410Z,4.73
2019-05-23T02:42:15.991Z,4.87
2019-05-23T02:44:47.974Z,4.37
2019-05-23T02:47:40.225Z,4.60
2019-05-23T02:50:15.806Z,4.10
2019-05-23T02:52:50.331Z,5.33
2019-05-23T02:55:32.529Z,4.50
2019-05-23T02:58:14.799Z,5.27
2019-05-23T03:01:28.278Z,4.57
2019-05-23T03:04:02.215Z,5.23
2019-05-23T03:06:32.742Z,4.80
2019-05-23T03:09:04.927Z,4.87
2019-05-23T03:11:42.467Z,4.27
2019-05-23T03:14:27.237Z,4.97
2019-05-23T03:17:05.434Z,5.13
2019-05-23T03:20:13.880Z,5.20
2019-05-23T03:22:56.621Z,4.93
2019-05-23T03:26:12.882Z,4.80
2019-05-23T03:28:43.447Z,4.90
2019-05-23T03:31:29.823Z,5.67
2019-05-23T03:33:53.005Z,5.00
2019-05-23T03:36:27.260Z,4.87
2019-05-23T03:39:11.370Z,5.77
2019-05-23T03:41:41.918Z,5.47
2019-05-23T03:44:13.778Z,5.83
2019-05-23T03:47:00.256Z,5.10
2019-05-23T03:49:39.957Z,5.43
2019-05-23T03:52:11.288Z,5.70
2019-05-23T03:54:50.156Z,5.70
2019-05-23T03:57:25.729Z,6.20
2019-05-23T03:59:54.411Z,5.53
2019-05-23T04:02:26.526Z,5.97
2019-05-23T04:04:57.485Z,5.87
2019-05-23T04:07:27.364Z,5.47
2019-05-23T04:09:58.370Z,5.60
2019-05-23T04:12:37.855Z,6.30
2019-05-23T04:15:11.257Z,5.67
2019-05-23T04:17:42.942Z,6.90
2019-05-23T04:20:13.740Z,6.30
2019-05-23T04:22:47.396Z,6.10
2019-05-23T04:25:18.571Z,6.23
2019-05-23T04:27:48.449Z,5.90
2019-05-23T04:30:18.257Z,6.70
2019-05-23T04:33:05.596Z,7.43
2019-05-23T04:35:36.938Z,6.57
2019-05-23T04:38:28.192Z,6.93
2019-05-23T04:41:01.438Z,7.57
2019-05-23T04:43:31.462Z,6.40
2019-05-23T04:46:02.984Z,7.60
2019-05-23T04:48:37.825Z,8.37
2019-05-23T04:51:09.473Z,7.83
2019-05-23T04:53:52.499Z,7.50
2019-05-23T04:56:23.975Z,7.90
2019-05-23T04:58:56.489Z,8.33
2019-05-23T05:01:27.554Z,7.90
2019-05-23T05:03:57.869Z,7.70
2019-05-23T05:06:28.459Z,8.40
2019-05-23T05:08:59.065Z,8.33
2019-05-23T05:11:30.578Z,8.63
2019-05-23T05:14:01.047Z,7.83
2019-05-23T05:16:31.106Z,8.57
2019-05-23T05:19:01.503Z,8.83
2019-05-23T05:21:31.872Z,8.63
2019-05-23T05:24:02.409Z,8.40
2019-05-23T05:26:32.299Z,9.10
2019-05-23T05:29:02.641Z,9.67
2019-05-23T05:31:34.854Z,10.07
2019-05-23T05:34:04.559Z,9.80
2019-05-23T05:36:34.493Z,8.97
2019-05-23T05:39:06.469Z,9.67
2019-05-23T05:41:35.946Z,9.23
2019-05-23T05:44:11.576Z,11.00
2019-05-23T05:46:41.740Z,11.80
2019-05-23T05:49:12.300Z,10.93
2019-05-23T05:51:41.915Z,9.77
2019-05-23T05:54:11.953Z,9.33
2019-05-23T05:56:41.538Z,10.00
2019-05-23T05:59:11.337Z,9.77
2019-05-23T06:01:41.132Z,9.70
2019-05-23T06:04:11.193Z,9.47
2019-05-23T06:06:49.996Z,9.50
2019-05-23T06:09:29.388Z,9.80
2019-05-23T06:11:58.985Z,9.40
2019-05-23T06:14:29.364Z,9.87
2019-05-23T06:17:01.404Z,10.07
2019-05-23T06:19:31.186Z,9.23
2019-05-23T06:22:02.691Z,9.07
2019-05-23T06:24:44.954Z,9.20
2019-05-23T06:27:07.396Z,8.67
2019-05-23T06:29:39.053Z,9.57
2019-05-23T06:32:10.907Z,8.70
2019-05-23T06:34:41.544Z,9.23
2019-05-23T06:37:11.667Z,8.73
2019-05-23T06:39:42.636Z,8.87
2019-05-23T06:42:12.867Z,10.07
2019-05-23T06:44:42.422Z,9.27
2019-05-23T06:47:12.309Z,9.10
2019-05-23T06:49:42.141Z,8.63
2019-05-23T06:52:11.971Z,8.67
2019-05-23T06:54:41.821Z,8.63
2019-05-23T06:57:12.169Z,8.70
2019-05-23T06:59:44.860Z,8.57
2019-05-23T07:02:17.815Z,8.83
2019-05-23T07:04:47.894Z,8.63
2019-05-23T07:07:17.745Z,9.07
2019-05-23T07:09:48.316Z,8.03
2019-05-23T07:12:18.769Z,8.37
2019-05-23T07:14:48.774Z,8.47
2019-05-23T07:17:19.687Z,8.87
2019-05-23T07:19:49.418Z,7.63
2019-05-23T07:22:22.005Z,8.60
2019-05-23T07:24:58.626Z,8.57
2019-05-23T07:27:29.476Z,7.97
2019-05-23T07:29:59.518Z,7.77
2019-05-23T07:32:29.275Z,7.37
2019-05-23T07:35:10.214Z,8.13
2019-05-23T07:37:56.807Z,7.17
2019-05-23T07:40:28.022Z,8.00
2019-05-23T07:42:57.569Z,8.13
2019-05-23T07:45:34.267Z,7.47
2019-05-23T07:48:07.345Z,8.17
2019-05-23T07:50:37.393Z,8.37
2019-05-23T07:53:09.177Z,8.43
2019-05-23T07:55:42.113Z,8.27
2019-05-23T07:58:14.183Z,8.07
2019-05-23T08:00:55.521Z,8.23
2019-05-23T08:03:30.858Z,7.73
2019-05-23T08:06:01.426Z,8.63
2019-05-23T08:08:35.232Z,8.03
2019-05-23T08:11:04.963Z,7.03
2019-05-23T08:13:38.518Z,6.37
2019-05-23T08:16:09.992Z,7.47
2019-05-23T08:18:42.755Z,8.07
2019-05-23T08:21:13.274Z,7.70
2019-05-23T08:23:42.796Z,6.80
2019-05-23T08:26:13.001Z,6.23
2019-05-23T08:29:11.366Z,6.97
2019-05-23T08:31:16.450Z,6.10
2019-05-23T08:33:45.964Z,5.80
2019-05-23T08:36:16.385Z,6.37
2019-05-23T08:38:45.941Z,5.80
2019-05-23T08:41:15.268Z,5.80
2019-05-23T08:43:44.941Z,7.37
2019-05-23T08:46:21.370Z,6.20
2019-05-23T08:48:54.632Z,5.90
2019-05-23T08:51:24.276Z,5.40
2019-05-23T08:53:54.105Z,5.17
2019-05-23T08:56:30.442Z,4.53
2019-05-23T08:59:01.559Z,5.10
2019-05-23T09:01:32.502Z,5.13
2019-05-23T09:04:02.551Z,4.37
2019-05-23T09:06:33.550Z,5.50
2019-05-23T09:09:27.719Z,4.53
2019-05-23T09:11:37.922Z,4.80
2019-05-23T09:14:11.487Z,4.60
2019-05-23T09:16:43.399Z,4.57
2019-05-23T09:19:14.301Z,4.13
2019-05-23T09:21:45.923Z,4.03
2019-05-23T09:24:16.789Z,3.87
2019-05-23T09:26:48.055Z,3.53
2019-05-23T09:29:18.127Z,3.20
2019-05-23T09:31:47.588Z,3.00
2019-05-23T09:34:22.268Z,3.17
2019-05-23T09:36:51.819Z,3.67
2019-05-23T09:39:23.344Z,3.67
2019-05-23T09:41:53.226Z,3.10
2019-05-23T09:44:24.588Z,3.13
2019-05-23T09:46:53.990Z,3.13
2019-05-23T09:49:25.033Z,3.83
2019-05-23T09:52:00.925Z,3.73
2019-05-23T09:54:29.715Z,3.00
2019-05-23T09:56:59.434Z,3.63
2019-05-23T09:59:28.913Z,3.30
2019-05-23T10:02:01.310Z,2.30
2019-05-23T10:04:33.159Z,2.30
2019-05-23T10:07:03.013Z,2.30
2019-05-23T10:09:33.101Z,2.37
2019-05-23T10:12:03.044Z,2.00
2019-05-23T10:14:36.723Z,2.40
2019-05-23T10:17:07.914Z,1.73
2019-05-23T10:19:37.582Z,2.37
2019-05-23T10:22:07.219Z,2.20
2019-05-23T10:24:36.763Z,1.70
2019-05-23T10:27:09.193Z,1.60
2019-05-23T10:29:38.697Z,1.57
2019-05-23T10:32:11.440Z,2.00
2019-05-23T10:34:40.921Z,1.60
2019-05-23T10:37:12.542Z,1.60
2019-05-23T10:39:46.698Z,1.47
2019-05-23T10:42:20.283Z,1.40
2019-05-23T10:44:49.509Z,1.80
2019-05-23T10:47:20.778Z,1.60
2019-05-23T10:49:50.353Z,1.13
2019-05-23T10:52:23.621Z,0.90
2019-05-23T10:55:17.550Z,1.60
2019-05-23T10:57:50.147Z,1.70
2019-05-23T11:00:21.983Z,1.80
2019-05-23T11:02:52.801Z,1.40
2019-05-23T11:05:22.586Z,1.60
2019-05-23T11:07:52.698Z,1.73
2019-05-23T11:10:24.747Z,1.70
2019-05-23T11:12:56.648Z,1.27
2019-05-23T11:15:26.418Z,1.03
2019-05-23T11:18:03.779Z,1.60
2019-05-23T11:20:42.341Z,1.03
2019-05-23T11:23:25.669Z,1.40
2019-05-23T11:25:55.510Z,1.40
2019-05-23T11:28:25.534Z,1.37
2019-05-23T11:30:58.632Z,1.60
2019-05-23T11:33:28.742Z,1.40
2019-05-23T11:36:01.559Z,1.40
2019-05-23T11:38:34.085Z,1.60
2019-05-23T11:41:05.186Z,1.60
2019-05-23T11:43:34.821Z,1.50
2019-05-23T11:46:10.391Z,1.30
2019-05-23T11:48:40.447Z,1.27
2019-05-23T11:51:10.962Z,1.23
2019-05-23T11:53:40.688Z,1.47
2019-05-23T11:56:11.679Z,1.93
2019-05-23T11:58:41.450Z,1.43
2019-05-23T12:01:34.549Z,1.20
2019-05-23T12:04:16.744Z,1.20
2019-05-23T12:07:12.337Z,1.07
2019-05-23T12:09:42.337Z,1.17
2019-05-23T12:12:12.040Z,1.10
2019-05-23T12:14:42.513Z,1.37
2019-05-23T12:17:13.090Z,1.00
2019-05-23T12:19:42.930Z,1.07
2019-05-23T12:22:13.930Z,1.47
2019-05-23T12:24:43.959Z,1.30
2019-05-23T12:27:14.531Z,1.00
2019-05-23T12:29:45.549Z,1.30
2019-05-23T12:32:17.741Z,0.90
2019-05-23T12:35:08.065Z,1.23
2019-05-23T12:37:20.337Z,1.10
2019-05-23T12:39:49.930Z,1.23
2019-05-23T12:42:20.109Z,1.53
2019-05-23T12:44:51.064Z,1.57
2019-05-23T12:47:27.986Z,2.07
2019-05-23T12:50:10.871Z,1.80
2019-05-23T12:52:40.719Z,1.87
2019-05-23T12:55:18.772Z,1.70
2019-05-23T12:58:16.373Z,2.07
2019-05-23T13:01:09.146Z,2.20
2019-05-23T13:03:43.030Z,2.37
2019-05-23T13:06:46.735Z,2.20
2019-05-23T13:09:17.652Z,2.60
2019-05-23T13:12:03.721Z,2.23
2019-05-23T13:14:55.981Z,2.30
2019-05-23T13:17:41.037Z,3.13
2019-05-23T13:20:13.767Z,2.80
2019-05-23T13:22:53.145Z,2.73
2019-05-23T13:25:23.390Z,2.77
2019-05-23T13:27:52.790Z,3.07
2019-05-23T13:30:24.305Z,2.27
2019-05-23T13:32:55.109Z,2.03
2019-05-23T13:35:26.364Z,3.10
2019-05-23T13:37:55.919Z,2.80
2019-05-23T13:40:25.445Z,2.50
2019-05-23T13:42:55.336Z,2.47
2019-05-23T13:45:26.818Z,2.53
2019-05-23T13:47:56.736Z,2.37
2019-05-23T13:50:27.332Z,2.30
2019-05-23T13:52:57.527Z,2.37
2019-05-23T13:55:27.633Z,3.57
2019-05-23T13:58:00.339Z,3.00
2019-05-23T14:00:30.344Z,2.73
2019-05-23T14:03:04.722Z,3.67
2019-05-23T14:05:34.134Z,3.37
2019-05-23T14:08:19.516Z,2.97
2019-05-23T14:10:53.158Z,3.17
2019-05-23T14:13:23.108Z,3.43
2019-05-23T14:15:55.841Z,3.00
2019-05-23T14:18:27.866Z,3.50
2019-05-23T14:20:59.276Z,3.43
2019-05-23T14:23:33.126Z,2.83
2019-05-23T14:26:03.239Z,3.07
2019-05-23T14:28:55.740Z,3.10
2019-05-23T14:31:54.768Z,3.47
2019-05-23T14:34:36.317Z,3.43
2019-05-23T14:37:23.277Z,3.30
2019-05-23T14:40:07.526Z,3.30
2019-05-23T14:43:01.288Z,2.93
2019-05-23T14:45:40.511Z,2.80
2019-05-23T14:48:36.034Z,3.23
2019-05-23T14:51:50.593Z,3.77
2019-05-23T14:54:28.205Z,3.60
2019-05-23T14:56:57.928Z,2.80
2019-05-23T14:59:28.554Z,3.37
2019-05-23T15:01:58.488Z,3.17
2019-05-23T15:04:38.363Z,3.50
2019-05-23T15:07:09.256Z,3.37
2019-05-23T15:09:38.554Z,3.87
2019-05-23T15:12:21.605Z,3.47
2019-05-23T15:14:51.335Z,3.40
2019-05-23T15:17:22.735Z,2.73
2019-05-23T15:20:15.700Z,2.43
2019-05-23T15:22:45.235Z,2.90
2019-05-23T15:25:20.565Z,3.83
2019-05-23T15:27:51.819Z,3.30
2019-05-23T15:30:24.985Z,3.57
2019-05-23T15:32:54.622Z,3.10
2019-05-23T15:35:25.918Z,3.67
2019-05-23T15:37:57.231Z,2.70
2019-05-23T15:40:34.210Z,2.50
2019-05-23T15:43:03.907Z,3.20
2019-05-23T15:45:33.880Z,1.97
2019-05-23T15:48:05.808Z,2.30
2019-05-23T15:50:41.972Z,2.17
2019-05-23T15:53:30.553Z,2.10
2019-05-23T15:56:27.689Z,2.47
2019-05-23T15:58:55.547Z,2.00
2019-05-23T16:01:42.753Z,2.03
2019-05-23T16:04:14.843Z,2.10
2019-05-23T16:06:45.440Z,1.90
2019-05-23T16:09:28.619Z,1.93
2019-05-23T16:11:51.147Z,1.83
2019-05-23T16:14:25.400Z,1.43
2019-05-23T16:16:57.371Z,1.63
2019-05-23T16:19:27.007Z,1.90
2019-05-23T16:21:56.691Z,2.30
2019-05-23T16:24:38.090Z,2.20
2019-05-23T16:27:17.786Z,2.20
2019-05-23T16:29:47.838Z,2.07
2019-05-23T16:32:19.556Z,1.80
2019-05-23T16:34:49.681Z,2.10
2019-05-23T16:37:20.140Z,1.53
2019-05-23T16:39:52.055Z,2.47
2019-05-23T16:42:24.091Z,2.00
2019-05-23T16:44:54.857Z,1.93
2019-05-23T16:47:25.738Z,1.80
2019-05-23T16:49:56.225Z,1.83
2019-05-23T16:52:26.174Z,1.37
2019-05-23T16:54:58.033Z,2.00
2019-05-23T16:57:39.143Z,1.83
2019-05-23T17:00:26.717Z,2.07
2019-05-23T17:03:24.256Z,1.70
2019-05-23T17:06:03.530Z,1.83
2019-05-23T17:08:49.380Z,1.60
2019-05-23T17:11:34.826Z,1.70
2019-05-23T17:14:16.220Z,1.90
2019-05-23T17:17:05.124Z,1.80
2019-05-23T17:19:39.572Z,1.80
2019-05-23T17:22:37.557Z,1.92
2019-05-23T17:25:21.226Z,1.90
2019-05-23T17:28:16.804Z,1.97
2019-05-23T17:31:12.133Z,1.47
2019-05-23T17:33:42.518Z,1.53
2019-05-23T17:36:21.134Z,1.53
2019-05-23T17:39:29.433Z,1.70
2019-05-23T17:42:00.661Z,1.40
2019-05-23T17:44:30.226Z,1.60
2019-05-23T17:47:02.636Z,1.57
2019-05-23T17:49:32.324Z,1.80
2019-05-23T17:52:01.999Z,1.43
2019-05-23T17:54:32.605Z,1.30
2019-05-23T17:57:03.248Z,1.57
2019-05-23T17:59:46.626Z,1.37
2019-05-23T18:02:44.599Z,1.60
2019-05-23T18:20:47.338Z,1.30
2019-05-23T18:23:21.929Z,1.37
2019-05-23T18:28:58.154Z,1.00
2019-05-23T18:31:33.574Z,1.20
2019-05-23T18:34:04.179Z,1.20
2019-05-23T18:36:35.239Z,1.27
2019-05-23T18:39:29.352Z,1.37
2019-05-23T18:45:18.585Z,1.10
2019-05-23T18:48:06.550Z,1.40
2019-05-23T18:57:21.655Z,1.40
2019-05-23T18:59:51.910Z,1.60
2019-05-23T22:32:45.978Z,4.13
2019-05-23T22:35:36.876Z,3.60
